MAS185 WBSB-WIII
Flight info
| Callsign | MAS185 |
|---|---|
| Flight time | 2h 7m |
| Altitude | 38000 |
| Route | BRU R223 BUTAX P648 AMBOY |
| Aircraft | A339/H-SADE1E2E3GHIJ3J5M1P2RWXY/LB2D1 |
Departure
| Time | 2026-04-28 09:50 |
|---|---|
| Airport | Brunei International Airport (WBSB) |
Arrival
| Time | 2026-04-28 11:58 |
|---|---|
| Airport | Soekarno-Hatta International Airport (WIII) |
| Time | Latitude | Longitude | Altitude | Speed | Heading |
|---|---|---|---|---|---|
| 2026-04-28 09:17 | 4.94599 | 114.93215 | 51 ft | 0 kts | 119° |
| 2026-04-28 09:41 | 4.94602 | 114.93210 | 56 ft | 2 kts | 119° |
| 2026-04-28 09:41 | 4.94611 | 114.93198 | 49 ft | 2 kts | 117° |
| 2026-04-28 09:41 | 4.94619 | 114.93193 | 51 ft | 0 kts | 54° |
| 2026-04-28 09:42 | 4.94610 | 114.93182 | 47 ft | 2 kts | 64° |
| 2026-04-28 09:42 | 4.94604 | 114.93167 | 47 ft | 2 kts | 5° |
| 2026-04-28 09:43 | 4.94617 | 114.93169 | 47 ft | 5 kts | 5° |
| 2026-04-28 09:44 | 4.94669 | 114.93178 | 49 ft | 10 kts | 16° |
| 2026-04-28 09:44 | 4.94753 | 114.93215 | 53 ft | 16 kts | 25° |
| 2026-04-28 09:44 | 4.94857 | 114.93283 | 51 ft | 20 kts | 34° |
| 2026-04-28 09:44 | 4.94983 | 114.93363 | 56 ft | 22 kts | 30° |
| 2026-04-28 09:45 | 4.95109 | 114.93441 | 57 ft | 21 kts | 31° |
| 2026-04-28 09:45 | 4.95231 | 114.93514 | 60 ft | 20 kts | 31° |
| 2026-04-28 09:45 | 4.95348 | 114.93584 | 64 ft | 19 kts | 30° |
| 2026-04-28 09:45 | 4.95460 | 114.93656 | 62 ft | 19 kts | 32° |
| 2026-04-28 09:46 | 4.95569 | 114.93724 | 66 ft | 18 kts | 32° |
| 2026-04-28 09:46 | 4.95677 | 114.93788 | 69 ft | 17 kts | 20° |
| 2026-04-28 09:46 | 4.95749 | 114.93780 | 69 ft | 0 kts | 330° |
| 2026-04-28 09:46 | 4.95753 | 114.93778 | 68 ft | 1 kts | 330° |
| 2026-04-28 09:47 | 4.95754 | 114.93777 | 68 ft | 0 kts | 328° |
| 2026-04-28 09:47 | 4.95754 | 114.93776 | 68 ft | 0 kts | 328° |
| 2026-04-28 09:48 | 4.95772 | 114.93766 | 68 ft | 6 kts | 327° |
| 2026-04-28 09:48 | 4.95804 | 114.93717 | 69 ft | 11 kts | 292° |
| 2026-04-28 09:48 | 4.95776 | 114.93640 | 70 ft | 13 kts | 218° |
| 2026-04-28 09:48 | 4.95760 | 114.93631 | 68 ft | 0 kts | 211° |
| 2026-04-28 09:49 | 4.95759 | 114.93630 | 68 ft | 3 kts | 211° |
| 2026-04-28 09:50 | 4.95479 | 114.93461 | 65 ft | 95 kts | 211° |
| 2026-04-28 09:50 | 4.94667 | 114.92971 | 61 ft | 172 kts | 212° |
| 2026-04-28 09:50 | 4.93592 | 114.92314 | 759 ft | 182 kts | 213° |
| 2026-04-28 09:50 | 4.92517 | 114.91654 | 1729 ft | 185 kts | 213° |
| 2026-04-28 09:51 | 4.91379 | 114.90954 | 2455 ft | 202 kts | 212° |
| 2026-04-28 09:51 | 4.90122 | 114.90175 | 3100 ft | 223 kts | 210° |
| 2026-04-28 09:51 | 4.88747 | 114.89328 | 3593 ft | 242 kts | 210° |
| 2026-04-28 09:51 | 4.87137 | 114.88607 | 3808 ft | 266 kts | 193° |
| 2026-04-28 09:52 | 4.85271 | 114.88426 | 4236 ft | 273 kts | 177° |
| 2026-04-28 09:52 | 4.83350 | 114.88440 | 4868 ft | 277 kts | 178° |
| 2026-04-28 09:52 | 4.81411 | 114.88424 | 5571 ft | 278 kts | 179° |
| 2026-04-28 09:52 | 4.79471 | 114.88388 | 6227 ft | 280 kts | 179° |
| 2026-04-28 09:53 | 4.77512 | 114.88342 | 6855 ft | 282 kts | 179° |
| 2026-04-28 09:53 | 4.75569 | 114.88295 | 7452 ft | 285 kts | 179° |
| 2026-04-28 09:53 | 4.73575 | 114.88247 | 8079 ft | 287 kts | 179° |
| 2026-04-28 09:53 | 4.71568 | 114.88199 | 8698 ft | 290 kts | 179° |
| 2026-04-28 09:54 | 4.69538 | 114.88153 | 9324 ft | 292 kts | 179° |
| 2026-04-28 09:54 | 4.67504 | 114.88108 | 9943 ft | 294 kts | 179° |
| 2026-04-28 09:54 | 4.65428 | 114.88062 | 10310 ft | 306 kts | 179° |
| 2026-04-28 09:54 | 4.63227 | 114.88014 | 10464 ft | 324 kts | 179° |
| 2026-04-28 09:55 | 4.60907 | 114.87963 | 10626 ft | 341 kts | 179° |
| 2026-04-28 09:55 | 4.58497 | 114.87907 | 11009 ft | 348 kts | 179° |
| 2026-04-28 09:55 | 4.56079 | 114.87850 | 11529 ft | 351 kts | 179° |
| 2026-04-28 09:55 | 4.53625 | 114.87792 | 12037 ft | 354 kts | 179° |
| 2026-04-28 09:56 | 4.51140 | 114.87734 | 12540 ft | 357 kts | 179° |
| 2026-04-28 09:56 | 4.48637 | 114.87677 | 13037 ft | 361 kts | 179° |
| 2026-04-28 09:56 | 4.46144 | 114.87600 | 13520 ft | 365 kts | 183° |
| 2026-04-28 09:56 | 4.43645 | 114.87050 | 13968 ft | 370 kts | 199° |
| 2026-04-28 09:57 | 4.41346 | 114.85859 | 14422 ft | 374 kts | 214° |
| 2026-04-28 09:57 | 4.39266 | 114.84267 | 14843 ft | 378 kts | 217° |
| 2026-04-28 09:57 | 4.37172 | 114.82658 | 15284 ft | 380 kts | 216° |
| 2026-04-28 09:57 | 4.35082 | 114.81069 | 15702 ft | 383 kts | 216° |
| 2026-04-28 09:58 | 4.32944 | 114.79455 | 16151 ft | 386 kts | 216° |
| 2026-04-28 09:58 | 4.30792 | 114.77834 | 16565 ft | 388 kts | 216° |
| 2026-04-28 09:58 | 4.28620 | 114.76199 | 16988 ft | 391 kts | 216° |
| 2026-04-28 09:58 | 4.26438 | 114.74557 | 17404 ft | 393 kts | 216° |
| 2026-04-28 09:59 | 4.24237 | 114.72901 | 17811 ft | 396 kts | 216° |
| 2026-04-28 09:59 | 4.22023 | 114.71235 | 18215 ft | 399 kts | 216° |
| 2026-04-28 09:59 | 4.19793 | 114.69556 | 18579 ft | 401 kts | 216° |
| 2026-04-28 09:59 | 4.17584 | 114.67893 | 18945 ft | 403 kts | 216° |
| 2026-04-28 10:00 | 4.15329 | 114.66196 | 19319 ft | 405 kts | 216° |
| 2026-04-28 10:00 | 4.13063 | 114.64489 | 19693 ft | 408 kts | 216° |
| 2026-04-28 10:00 | 4.10788 | 114.62777 | 20052 ft | 410 kts | 216° |
| 2026-04-28 10:00 | 4.08527 | 114.61076 | 20413 ft | 413 kts | 215° |
| 2026-04-28 10:01 | 4.06220 | 114.59340 | 20792 ft | 415 kts | 215° |
| 2026-04-28 10:01 | 4.03909 | 114.57601 | 21161 ft | 417 kts | 215° |
| 2026-04-28 10:01 | 4.01576 | 114.55846 | 21550 ft | 420 kts | 215° |
| 2026-04-28 10:01 | 3.99234 | 114.54084 | 21922 ft | 423 kts | 215° |
| 2026-04-28 10:02 | 3.96867 | 114.52303 | 22325 ft | 425 kts | 215° |
| 2026-04-28 10:02 | 3.94493 | 114.50517 | 22687 ft | 428 kts | 215° |
| 2026-04-28 10:02 | 3.92102 | 114.48715 | 23063 ft | 430 kts | 216° |
| 2026-04-28 10:02 | 3.89730 | 114.46865 | 23425 ft | 433 kts | 217° |
| 2026-04-28 10:03 | 3.87361 | 114.44975 | 23762 ft | 435 kts | 217° |
| 2026-04-28 10:03 | 3.84993 | 114.43083 | 24094 ft | 437 kts | 217° |
| 2026-04-28 10:03 | 3.82638 | 114.41208 | 24419 ft | 439 kts | 217° |
| 2026-04-28 10:03 | 3.80240 | 114.39306 | 24757 ft | 441 kts | 216° |
| 2026-04-28 10:04 | 3.77818 | 114.37388 | 25095 ft | 442 kts | 216° |
| 2026-04-28 10:04 | 3.75398 | 114.35475 | 25424 ft | 444 kts | 216° |
| 2026-04-28 10:04 | 3.72969 | 114.33556 | 25739 ft | 446 kts | 216° |
| 2026-04-28 10:04 | 3.70520 | 114.31621 | 26048 ft | 448 kts | 216° |
| 2026-04-28 10:05 | 3.68094 | 114.29705 | 26372 ft | 450 kts | 216° |
| 2026-04-28 10:05 | 3.65631 | 114.27759 | 26687 ft | 452 kts | 216° |
| 2026-04-28 10:05 | 3.63155 | 114.25803 | 27007 ft | 454 kts | 216° |
| 2026-04-28 10:05 | 3.60673 | 114.23842 | 27307 ft | 456 kts | 216° |
| 2026-04-28 10:06 | 3.58178 | 114.21871 | 27605 ft | 458 kts | 216° |
| 2026-04-28 10:06 | 3.55663 | 114.19884 | 27914 ft | 460 kts | 216° |
| 2026-04-28 10:06 | 3.53144 | 114.17895 | 28213 ft | 462 kts | 216° |
| 2026-04-28 10:06 | 3.50618 | 114.15901 | 28508 ft | 464 kts | 216° |
| 2026-04-28 10:07 | 3.48072 | 114.13890 | 28791 ft | 466 kts | 216° |
| 2026-04-28 10:07 | 3.45514 | 114.11870 | 29057 ft | 469 kts | 216° |
| 2026-04-28 10:07 | 3.42946 | 114.09841 | 29348 ft | 470 kts | 216° |
| 2026-04-28 10:07 | 3.40371 | 114.07808 | 29633 ft | 472 kts | 216° |
| 2026-04-28 10:08 | 3.37815 | 114.05790 | 29893 ft | 475 kts | 216° |
| 2026-04-28 10:08 | 3.35215 | 114.03737 | 30145 ft | 478 kts | 216° |
| 2026-04-28 10:08 | 3.32596 | 114.01670 | 30450 ft | 478 kts | 216° |
| 2026-04-28 10:08 | 3.29980 | 113.99605 | 30721 ft | 480 kts | 216° |
| 2026-04-28 10:09 | 3.27350 | 113.97531 | 31004 ft | 482 kts | 216° |
| 2026-04-28 10:09 | 3.24713 | 113.95452 | 31271 ft | 483 kts | 216° |
| 2026-04-28 10:09 | 3.22063 | 113.93361 | 31540 ft | 485 kts | 216° |
| 2026-04-28 10:09 | 3.19437 | 113.91288 | 31778 ft | 487 kts | 216° |
| 2026-04-28 10:10 | 3.16770 | 113.89184 | 32041 ft | 488 kts | 217° |
| 2026-04-28 10:10 | 3.14092 | 113.87072 | 32285 ft | 490 kts | 217° |
| 2026-04-28 10:10 | 3.11405 | 113.84951 | 32449 ft | 492 kts | 216° |
| 2026-04-28 10:10 | 3.08716 | 113.82829 | 32670 ft | 493 kts | 216° |
| 2026-04-28 10:11 | 3.04223 | 113.79285 | 32937 ft | 495 kts | 216° |
| 2026-04-28 10:11 | 3.01513 | 113.77148 | 33070 ft | 496 kts | 216° |
| 2026-04-28 10:11 | 2.98796 | 113.75004 | 33214 ft | 497 kts | 216° |
| 2026-04-28 10:12 | 2.95187 | 113.72159 | 33434 ft | 497 kts | 216° |
| 2026-04-28 10:12 | 2.93349 | 113.70709 | 33527 ft | 497 kts | 216° |
| 2026-04-28 10:12 | 2.90666 | 113.68593 | 33684 ft | 496 kts | 216° |
| 2026-04-28 10:12 | 2.87956 | 113.66456 | 33845 ft | 495 kts | 216° |
| 2026-04-28 10:13 | 2.85244 | 113.64317 | 33991 ft | 495 kts | 216° |
| 2026-04-28 10:13 | 2.82540 | 113.62186 | 34137 ft | 494 kts | 216° |
| 2026-04-28 10:13 | 2.79843 | 113.60058 | 34279 ft | 493 kts | 217° |
| 2026-04-28 10:13 | 2.77140 | 113.57927 | 34465 ft | 491 kts | 217° |
| 2026-04-28 10:14 | 2.74458 | 113.55814 | 34633 ft | 491 kts | 216° |
| 2026-04-28 10:14 | 2.71804 | 113.53728 | 34768 ft | 490 kts | 216° |
| 2026-04-28 10:14 | 2.69123 | 113.51622 | 34916 ft | 490 kts | 216° |
| 2026-04-28 10:14 | 2.66442 | 113.49517 | 35073 ft | 489 kts | 216° |
| 2026-04-28 10:15 | 2.63767 | 113.47416 | 35227 ft | 488 kts | 216° |
| 2026-04-28 10:15 | 2.61094 | 113.45316 | 35390 ft | 488 kts | 216° |
| 2026-04-28 10:15 | 2.58426 | 113.43220 | 35546 ft | 487 kts | 216° |
| 2026-04-28 10:15 | 2.55767 | 113.41131 | 35723 ft | 487 kts | 216° |
| 2026-04-28 10:16 | 2.53096 | 113.39033 | 35906 ft | 486 kts | 216° |
| 2026-04-28 10:16 | 2.50443 | 113.36949 | 36089 ft | 485 kts | 216° |
| 2026-04-28 10:16 | 2.47785 | 113.34860 | 36270 ft | 484 kts | 216° |
| 2026-04-28 10:16 | 2.45141 | 113.32784 | 36451 ft | 484 kts | 216° |
| 2026-04-28 10:17 | 2.39843 | 113.28621 | 36676 ft | 487 kts | 216° |
| 2026-04-28 10:17 | 2.37177 | 113.26528 | 36851 ft | 486 kts | 216° |
| 2026-04-28 10:17 | 2.34513 | 113.24436 | 37045 ft | 485 kts | 216° |
| 2026-04-28 10:18 | 2.31857 | 113.22350 | 37216 ft | 485 kts | 216° |
| 2026-04-28 10:18 | 2.29206 | 113.20269 | 37404 ft | 484 kts | 216° |
| 2026-04-28 10:18 | 2.26583 | 113.18209 | 37572 ft | 483 kts | 216° |
| 2026-04-28 10:18 | 2.23941 | 113.16135 | 37751 ft | 483 kts | 216° |
| 2026-04-28 10:19 | 2.18654 | 113.11983 | 37820 ft | 481 kts | 216° |
| 2026-04-28 10:19 | 2.13360 | 113.07829 | 37820 ft | 486 kts | 216° |
| 2026-04-28 10:20 | 2.08028 | 113.03643 | 37820 ft | 485 kts | 217° |
| 2026-04-28 10:20 | 2.02716 | 112.99472 | 37817 ft | 485 kts | 217° |
| 2026-04-28 10:21 | 1.97187 | 112.95133 | 37827 ft | 485 kts | 217° |
| 2026-04-28 10:21 | 1.91872 | 112.90962 | 37831 ft | 485 kts | 217° |
| 2026-04-28 10:22 | 1.86546 | 112.86782 | 37831 ft | 486 kts | 217° |
| 2026-04-28 10:22 | 1.81234 | 112.82613 | 37834 ft | 486 kts | 217° |
| 2026-04-28 10:23 | 1.75941 | 112.78472 | 37836 ft | 485 kts | 216° |
| 2026-04-28 10:23 | 1.70616 | 112.74306 | 37839 ft | 485 kts | 216° |
| 2026-04-28 10:24 | 1.65357 | 112.70182 | 37846 ft | 485 kts | 216° |
| 2026-04-28 10:24 | 1.60036 | 112.66008 | 37844 ft | 484 kts | 216° |
| 2026-04-28 10:25 | 1.54735 | 112.61852 | 37846 ft | 484 kts | 216° |
| 2026-04-28 10:25 | 1.49418 | 112.57725 | 37844 ft | 484 kts | 216° |
| 2026-04-28 10:26 | 1.44082 | 112.53586 | 37841 ft | 484 kts | 216° |
| 2026-04-28 10:26 | 1.38796 | 112.49481 | 37838 ft | 484 kts | 216° |
| 2026-04-28 10:27 | 1.33458 | 112.45335 | 37842 ft | 485 kts | 216° |
| 2026-04-28 10:27 | 1.28126 | 112.41194 | 37854 ft | 485 kts | 216° |
| 2026-04-28 10:28 | 1.22814 | 112.37068 | 37837 ft | 485 kts | 216° |
| 2026-04-28 10:29 | 1.14802 | 112.30846 | 37838 ft | 486 kts | 216° |
| 2026-04-28 10:29 | 1.09491 | 112.26723 | 37825 ft | 486 kts | 216° |
| 2026-04-28 10:30 | 1.04144 | 112.22572 | 37828 ft | 486 kts | 216° |
| 2026-04-28 10:30 | 0.98825 | 112.18443 | 37819 ft | 486 kts | 216° |
| 2026-04-28 10:31 | 0.93476 | 112.14290 | 37817 ft | 486 kts | 216° |
| 2026-04-28 10:31 | 0.88158 | 112.10162 | 37819 ft | 485 kts | 216° |
| 2026-04-28 10:32 | 0.82821 | 112.06019 | 37822 ft | 485 kts | 216° |
| 2026-04-28 10:32 | 0.77490 | 112.01882 | 37822 ft | 485 kts | 216° |
| 2026-04-28 10:33 | 0.72158 | 111.97744 | 37821 ft | 485 kts | 216° |
| 2026-04-28 10:33 | 0.66860 | 111.93631 | 37800 ft | 485 kts | 216° |
| 2026-04-28 10:34 | 0.61519 | 111.89486 | 37802 ft | 486 kts | 216° |
| 2026-04-28 10:34 | 0.56178 | 111.85341 | 37822 ft | 486 kts | 216° |
| 2026-04-28 10:35 | 0.50833 | 111.81193 | 37824 ft | 486 kts | 216° |
| 2026-04-28 10:35 | 0.45488 | 111.77047 | 37812 ft | 486 kts | 216° |
| 2026-04-28 10:36 | 0.40179 | 111.72926 | 37810 ft | 485 kts | 216° |
| 2026-04-28 10:36 | 0.34845 | 111.68787 | 37807 ft | 485 kts | 216° |
| 2026-04-28 10:37 | 0.29504 | 111.64643 | 37808 ft | 485 kts | 216° |
| 2026-04-28 10:37 | 0.24163 | 111.60499 | 37805 ft | 485 kts | 216° |
| 2026-04-28 10:38 | 0.18856 | 111.56381 | 37807 ft | 485 kts | 216° |
| 2026-04-28 10:38 | 0.13515 | 111.52237 | 37806 ft | 485 kts | 216° |
| 2026-04-28 10:39 | 0.08197 | 111.48110 | 37801 ft | 485 kts | 216° |
| 2026-04-28 10:39 | 0.02862 | 111.43971 | 37803 ft | 485 kts | 216° |
| 2026-04-28 10:40 | -0.02476 | 111.39829 | 37809 ft | 485 kts | 216° |
| 2026-04-28 10:40 | -0.07789 | 111.35707 | 37808 ft | 486 kts | 216° |
| 2026-04-28 10:41 | -0.13132 | 111.31562 | 37808 ft | 486 kts | 216° |
| 2026-04-28 10:41 | -0.18475 | 111.27416 | 37814 ft | 486 kts | 216° |
| 2026-04-28 10:42 | -0.23832 | 111.23260 | 37821 ft | 486 kts | 216° |
| 2026-04-28 10:42 | -0.29184 | 111.19107 | 37828 ft | 486 kts | 216° |
| 2026-04-28 10:43 | -0.34498 | 111.14984 | 37828 ft | 486 kts | 216° |
| 2026-04-28 10:43 | -0.39846 | 111.10833 | 37831 ft | 486 kts | 217° |
| 2026-04-28 10:44 | -0.45186 | 111.06669 | 37841 ft | 486 kts | 217° |
| 2026-04-28 10:44 | -0.50498 | 111.02525 | 37840 ft | 486 kts | 217° |
| 2026-04-28 10:45 | -0.55835 | 110.98363 | 37836 ft | 486 kts | 217° |
| 2026-04-28 10:45 | -0.61182 | 110.94194 | 37840 ft | 486 kts | 217° |
| 2026-04-28 10:46 | -0.66487 | 110.90057 | 37841 ft | 486 kts | 217° |
| 2026-04-28 10:46 | -0.70925 | 110.86597 | 37830 ft | 486 kts | 217° |
| 2026-04-28 10:47 | -0.77157 | 110.81737 | 37819 ft | 486 kts | 217° |
| 2026-04-28 10:47 | -0.81606 | 110.78268 | 37823 ft | 487 kts | 217° |
| 2026-04-28 10:48 | -0.86952 | 110.74099 | 37820 ft | 487 kts | 217° |
| 2026-04-28 10:48 | -0.92271 | 110.69951 | 37813 ft | 488 kts | 217° |
| 2026-04-28 10:49 | -0.97628 | 110.65774 | 37819 ft | 488 kts | 217° |
| 2026-04-28 10:49 | -1.02988 | 110.61593 | 37821 ft | 488 kts | 217° |
| 2026-04-28 10:50 | -1.08311 | 110.57440 | 37812 ft | 488 kts | 216° |
| 2026-04-28 10:50 | -1.13666 | 110.53263 | 37817 ft | 488 kts | 216° |
| 2026-04-28 10:51 | -1.19033 | 110.49077 | 37810 ft | 488 kts | 216° |
| 2026-04-28 10:51 | -1.24395 | 110.44897 | 37815 ft | 488 kts | 217° |
| 2026-04-28 10:52 | -1.29720 | 110.40743 | 37820 ft | 488 kts | 217° |
| 2026-04-28 10:52 | -1.35124 | 110.36621 | 37817 ft | 488 kts | 216° |
| 2026-04-28 10:53 | -1.40541 | 110.32525 | 37818 ft | 488 kts | 216° |
| 2026-04-28 10:53 | -1.45948 | 110.28422 | 37820 ft | 487 kts | 216° |
| 2026-04-28 10:54 | -1.51350 | 110.24317 | 37821 ft | 487 kts | 216° |
| 2026-04-28 10:54 | -1.56747 | 110.20216 | 37820 ft | 487 kts | 216° |
| 2026-04-28 10:55 | -1.62107 | 110.16142 | 37820 ft | 487 kts | 216° |
| 2026-04-28 10:55 | -1.67504 | 110.12041 | 37815 ft | 487 kts | 216° |
| 2026-04-28 10:56 | -1.72840 | 110.07850 | 37816 ft | 488 kts | 218° |
| 2026-04-28 10:56 | -1.78092 | 110.03555 | 37820 ft | 488 kts | 218° |
| 2026-04-28 10:57 | -1.83368 | 109.99271 | 37828 ft | 488 kts | 218° |
| 2026-04-28 10:57 | -1.88621 | 109.95026 | 37829 ft | 488 kts | 218° |
| 2026-04-28 10:58 | -1.93904 | 109.90759 | 37830 ft | 488 kts | 218° |
| 2026-04-28 10:58 | -1.99188 | 109.86491 | 37830 ft | 488 kts | 218° |
| 2026-04-28 10:59 | -2.04440 | 109.82248 | 37830 ft | 488 kts | 218° |
| 2026-04-28 10:59 | -2.09728 | 109.77975 | 37834 ft | 487 kts | 218° |
| 2026-04-28 11:00 | -2.14994 | 109.73720 | 37836 ft | 487 kts | 218° |
| 2026-04-28 11:00 | -2.20219 | 109.69496 | 37837 ft | 483 kts | 218° |
| 2026-04-28 11:01 | -2.25452 | 109.65267 | 37833 ft | 484 kts | 218° |
| 2026-04-28 11:01 | -2.30687 | 109.61036 | 37835 ft | 483 kts | 218° |
| 2026-04-28 11:02 | -2.35920 | 109.56805 | 37832 ft | 484 kts | 218° |
| 2026-04-28 11:02 | -2.41154 | 109.52574 | 37836 ft | 483 kts | 218° |
| 2026-04-28 11:03 | -2.46388 | 109.48342 | 37836 ft | 483 kts | 218° |
| 2026-04-28 11:03 | -2.51589 | 109.44137 | 37835 ft | 484 kts | 218° |
| 2026-04-28 11:04 | -2.56819 | 109.39907 | 37842 ft | 483 kts | 218° |
| 2026-04-28 11:04 | -2.62046 | 109.35679 | 37840 ft | 483 kts | 218° |
| 2026-04-28 11:05 | -2.67277 | 109.31448 | 37834 ft | 483 kts | 218° |
| 2026-04-28 11:05 | -2.72500 | 109.27222 | 37834 ft | 483 kts | 218° |
| 2026-04-28 11:06 | -2.77727 | 109.22993 | 37838 ft | 483 kts | 218° |
| 2026-04-28 11:06 | -2.82927 | 109.18786 | 37840 ft | 483 kts | 218° |
| 2026-04-28 11:07 | -2.88160 | 109.14550 | 37834 ft | 483 kts | 218° |
| 2026-04-28 11:07 | -2.93426 | 109.10364 | 37840 ft | 482 kts | 217° |
| 2026-04-28 11:08 | -2.98696 | 109.06280 | 37839 ft | 482 kts | 217° |
| 2026-04-28 11:08 | -3.03993 | 109.02159 | 37841 ft | 482 kts | 217° |
| 2026-04-28 11:09 | -3.09273 | 108.98038 | 37840 ft | 482 kts | 217° |
| 2026-04-28 11:09 | -3.14583 | 108.93891 | 37840 ft | 482 kts | 217° |
| 2026-04-28 11:10 | -3.19843 | 108.89784 | 37834 ft | 482 kts | 217° |
| 2026-04-28 11:10 | -3.25136 | 108.85650 | 37833 ft | 482 kts | 217° |
| 2026-04-28 11:11 | -3.30421 | 108.81522 | 37839 ft | 482 kts | 217° |
| 2026-04-28 11:11 | -3.35707 | 108.77391 | 37840 ft | 482 kts | 217° |
| 2026-04-28 11:12 | -3.40969 | 108.73280 | 37841 ft | 482 kts | 217° |
| 2026-04-28 11:12 | -3.46256 | 108.69149 | 37841 ft | 482 kts | 217° |
| 2026-04-28 11:13 | -3.51546 | 108.65014 | 37843 ft | 482 kts | 217° |
| 2026-04-28 11:13 | -3.56837 | 108.60878 | 37844 ft | 482 kts | 217° |
| 2026-04-28 11:14 | -3.62087 | 108.56773 | 37842 ft | 482 kts | 217° |
| 2026-04-28 11:14 | -3.67365 | 108.52646 | 37846 ft | 481 kts | 217° |
| 2026-04-28 11:15 | -3.72656 | 108.48508 | 37849 ft | 481 kts | 217° |
| 2026-04-28 11:15 | -3.77901 | 108.44406 | 37846 ft | 481 kts | 217° |
| 2026-04-28 11:16 | -3.83173 | 108.40281 | 37841 ft | 481 kts | 217° |
| 2026-04-28 11:16 | -3.88447 | 108.36154 | 37837 ft | 481 kts | 217° |
| 2026-04-28 11:17 | -3.93732 | 108.32019 | 37842 ft | 481 kts | 217° |
| 2026-04-28 11:17 | -3.99018 | 108.27904 | 37840 ft | 480 kts | 214° |
| 2026-04-28 11:18 | -4.04927 | 108.24984 | 37839 ft | 476 kts | 195° |
| 2026-04-28 11:18 | -4.11458 | 108.24122 | 37841 ft | 473 kts | 176° |
| 2026-04-28 11:19 | -4.17881 | 108.25358 | 37840 ft | 470 kts | 158° |
| 2026-04-28 11:19 | -4.23573 | 108.28532 | 37841 ft | 468 kts | 140° |
| 2026-04-28 11:20 | -4.28119 | 108.33190 | 37843 ft | 468 kts | 131° |
| 2026-04-28 11:20 | -4.32426 | 108.38028 | 37842 ft | 468 kts | 131° |
| 2026-04-28 11:21 | -4.36777 | 108.42889 | 37841 ft | 469 kts | 131° |
| 2026-04-28 11:21 | -4.41134 | 108.47761 | 37842 ft | 470 kts | 131° |
| 2026-04-28 11:22 | -4.45502 | 108.52649 | 37847 ft | 470 kts | 131° |
| 2026-04-28 11:22 | -4.49871 | 108.57538 | 37845 ft | 470 kts | 131° |
| 2026-04-28 11:23 | -4.54215 | 108.62401 | 37848 ft | 471 kts | 131° |
| 2026-04-28 11:23 | -4.58590 | 108.67298 | 37846 ft | 471 kts | 131° |
| 2026-04-28 11:24 | -4.63384 | 108.71742 | 37847 ft | 471 kts | 146° |
| 2026-04-28 11:24 | -4.69328 | 108.74469 | 37849 ft | 473 kts | 164° |
| 2026-04-28 11:25 | -4.75853 | 108.75181 | 37841 ft | 477 kts | 182° |
| 2026-04-28 11:25 | -4.82350 | 108.73768 | 37843 ft | 481 kts | 201° |
| 2026-04-28 11:26 | -4.88166 | 108.70442 | 37843 ft | 482 kts | 213° |
| 2026-04-28 11:26 | -4.93756 | 108.66769 | 37848 ft | 483 kts | 212° |
| 2026-04-28 11:27 | -4.99399 | 108.63086 | 37853 ft | 483 kts | 212° |
| 2026-04-28 11:27 | -5.05054 | 108.59393 | 37852 ft | 484 kts | 212° |
| 2026-04-28 11:28 | -5.10637 | 108.55745 | 37847 ft | 480 kts | 212° |
| 2026-04-28 11:28 | -5.16241 | 108.52081 | 37850 ft | 481 kts | 212° |
| 2026-04-28 11:29 | -5.21847 | 108.48415 | 37849 ft | 481 kts | 212° |
| 2026-04-28 11:29 | -5.27452 | 108.44750 | 37846 ft | 481 kts | 212° |
| 2026-04-28 11:30 | -5.33056 | 108.41084 | 37848 ft | 481 kts | 212° |
| 2026-04-28 11:30 | -5.38670 | 108.37411 | 37472 ft | 482 kts | 212° |
| 2026-04-28 11:30 | -5.41477 | 108.35575 | 37209 ft | 482 kts | 212° |
| 2026-04-28 11:31 | -5.44292 | 108.33733 | 36952 ft | 483 kts | 212° |
| 2026-04-28 11:31 | -5.47083 | 108.31907 | 36706 ft | 484 kts | 212° |
| 2026-04-28 11:31 | -5.49910 | 108.30057 | 36457 ft | 484 kts | 212° |
| 2026-04-28 11:31 | -5.52732 | 108.28209 | 36201 ft | 485 kts | 212° |
| 2026-04-28 11:32 | -5.55562 | 108.26357 | 35971 ft | 486 kts | 212° |
| 2026-04-28 11:32 | -5.58372 | 108.24485 | 35741 ft | 487 kts | 213° |
| 2026-04-28 11:32 | -5.61193 | 108.22549 | 35497 ft | 488 kts | 214° |
| 2026-04-28 11:32 | -5.64000 | 108.20610 | 35260 ft | 489 kts | 214° |
| 2026-04-28 11:33 | -5.66773 | 108.18698 | 35029 ft | 489 kts | 214° |
| 2026-04-28 11:33 | -5.69591 | 108.16762 | 34794 ft | 490 kts | 214° |
| 2026-04-28 11:33 | -5.72414 | 108.14827 | 34571 ft | 491 kts | 214° |
| 2026-04-28 11:33 | -5.74285 | 108.13546 | 34429 ft | 492 kts | 214° |
| 2026-04-28 11:34 | -5.77120 | 108.11605 | 34196 ft | 492 kts | 214° |
| 2026-04-28 11:34 | -5.80906 | 108.09012 | 33898 ft | 491 kts | 213° |
| 2026-04-28 11:34 | -5.82776 | 108.07731 | 33738 ft | 490 kts | 213° |
| 2026-04-28 11:34 | -5.86520 | 108.05168 | 33400 ft | 492 kts | 214° |
| 2026-04-28 11:35 | -5.88431 | 108.03859 | 33229 ft | 493 kts | 213° |
| 2026-04-28 11:35 | -5.91110 | 108.01705 | 32975 ft | 495 kts | 224° |
| 2026-04-28 11:35 | -5.93351 | 107.99076 | 32674 ft | 495 kts | 234° |
| 2026-04-28 11:35 | -5.95074 | 107.96122 | 31927 ft | 498 kts | 245° |
| 2026-04-28 11:36 | -5.96264 | 107.92838 | 30897 ft | 500 kts | 255° |
| 2026-04-28 11:36 | -5.96837 | 107.89374 | 29710 ft | 504 kts | 267° |
| 2026-04-28 11:36 | -5.96784 | 107.85861 | 28771 ft | 498 kts | 274° |
| 2026-04-28 11:36 | -5.96530 | 107.82414 | 28150 ft | 490 kts | 274° |
| 2026-04-28 11:37 | -5.96329 | 107.79040 | 27731 ft | 477 kts | 273° |
| 2026-04-28 11:37 | -5.96213 | 107.75723 | 26972 ft | 474 kts | 271° |
| 2026-04-28 11:37 | -5.96164 | 107.72468 | 26323 ft | 468 kts | 270° |
| 2026-04-28 11:37 | -5.96150 | 107.69209 | 25842 ft | 460 kts | 269° |
| 2026-04-28 11:38 | -5.96150 | 107.66049 | 25670 ft | 444 kts | 269° |
| 2026-04-28 11:38 | -5.96168 | 107.62987 | 25305 ft | 434 kts | 268° |
| 2026-04-28 11:38 | -5.96198 | 107.60059 | 25178 ft | 421 kts | 268° |
| 2026-04-28 11:38 | -5.96220 | 107.57064 | 25084 ft | 426 kts | 268° |
| 2026-04-28 11:39 | -5.96231 | 107.54085 | 24983 ft | 426 kts | 269° |
| 2026-04-28 11:39 | -5.96233 | 107.51106 | 24515 ft | 427 kts | 269° |
| 2026-04-28 11:39 | -5.96231 | 107.48103 | 23969 ft | 428 kts | 269° |
| 2026-04-28 11:39 | -5.96227 | 107.45122 | 23445 ft | 424 kts | 268° |
| 2026-04-28 11:40 | -5.96223 | 107.42204 | 22774 ft | 421 kts | 269° |
| 2026-04-28 11:40 | -5.96220 | 107.39279 | 22141 ft | 416 kts | 268° |
| 2026-04-28 11:40 | -5.96217 | 107.36376 | 21476 ft | 412 kts | 269° |
| 2026-04-28 11:40 | -5.96214 | 107.33514 | 20960 ft | 406 kts | 269° |
| 2026-04-28 11:41 | -5.96208 | 107.30728 | 20638 ft | 393 kts | 269° |
| 2026-04-28 11:41 | -5.96202 | 107.28000 | 20071 ft | 388 kts | 269° |
| 2026-04-28 11:41 | -5.96195 | 107.25296 | 19495 ft | 385 kts | 269° |
| 2026-04-28 11:41 | -5.96189 | 107.22618 | 18941 ft | 381 kts | 269° |
| 2026-04-28 11:42 | -5.96184 | 107.19997 | 18404 ft | 378 kts | 269° |
| 2026-04-28 11:42 | -5.96179 | 107.17363 | 17807 ft | 374 kts | 269° |
| 2026-04-28 11:42 | -5.96173 | 107.14764 | 17183 ft | 371 kts | 269° |
| 2026-04-28 11:42 | -5.96167 | 107.12179 | 16562 ft | 368 kts | 270° |
| 2026-04-28 11:43 | -5.96160 | 107.09620 | 15953 ft | 365 kts | 270° |
| 2026-04-28 11:43 | -5.96154 | 107.07081 | 15350 ft | 362 kts | 270° |
| 2026-04-28 11:43 | -5.96147 | 107.04570 | 14755 ft | 359 kts | 269° |
| 2026-04-28 11:43 | -5.96140 | 107.02079 | 14372 ft | 351 kts | 269° |
| 2026-04-28 11:44 | -5.96132 | 106.99627 | 13849 ft | 352 kts | 270° |
| 2026-04-28 11:44 | -5.96101 | 106.97153 | 13180 ft | 353 kts | 271° |
| 2026-04-28 11:44 | -5.96061 | 106.94759 | 12924 ft | 338 kts | 271° |
| 2026-04-28 11:44 | -5.96034 | 106.92460 | 12763 ft | 321 kts | 270° |
| 2026-04-28 11:45 | -5.96021 | 106.90254 | 12354 ft | 312 kts | 270° |
| 2026-04-28 11:45 | -5.96017 | 106.88079 | 11813 ft | 310 kts | 270° |
| 2026-04-28 11:45 | -5.96017 | 106.85920 | 11280 ft | 307 kts | 270° |
| 2026-04-28 11:45 | -5.96022 | 106.83782 | 10754 ft | 305 kts | 270° |
| 2026-04-28 11:46 | -5.96026 | 106.81661 | 10308 ft | 300 kts | 270° |
| 2026-04-28 11:46 | -5.96077 | 106.79594 | 9973 ft | 293 kts | 264° |
| 2026-04-28 11:46 | -5.96495 | 106.77605 | 9599 ft | 297 kts | 251° |
| 2026-04-28 11:46 | -5.97270 | 106.75702 | 9259 ft | 289 kts | 246° |
| 2026-04-28 11:47 | -5.98059 | 106.73842 | 8930 ft | 292 kts | 246° |
| 2026-04-28 11:47 | -5.98835 | 106.71961 | 8510 ft | 288 kts | 247° |
| 2026-04-28 11:47 | -5.99583 | 106.70115 | 8109 ft | 285 kts | 247° |
| 2026-04-28 11:47 | -6.00327 | 106.68260 | 7703 ft | 286 kts | 248° |
| 2026-04-28 11:48 | -6.01063 | 106.66423 | 7304 ft | 281 kts | 248° |
| 2026-04-28 11:48 | -6.01798 | 106.64600 | 6898 ft | 281 kts | 247° |
| 2026-04-28 11:48 | -6.02529 | 106.62792 | 6494 ft | 278 kts | 247° |
| 2026-04-28 11:48 | -6.03255 | 106.61002 | 6257 ft | 275 kts | 247° |
| 2026-04-28 11:49 | -6.03973 | 106.59234 | 6159 ft | 266 kts | 247° |
| 2026-04-28 11:49 | -6.04649 | 106.57572 | 6046 ft | 249 kts | 247° |
| 2026-04-28 11:49 | -6.05292 | 106.56000 | 5830 ft | 240 kts | 246° |
| 2026-04-28 11:49 | -6.05914 | 106.54477 | 5495 ft | 238 kts | 247° |
| 2026-04-28 11:50 | -6.06544 | 106.52925 | 5155 ft | 236 kts | 247° |
| 2026-04-28 11:50 | -6.07156 | 106.51401 | 4833 ft | 234 kts | 247° |
| 2026-04-28 11:50 | -6.07756 | 106.49901 | 4515 ft | 233 kts | 247° |
| 2026-04-28 11:50 | -6.08362 | 106.48392 | 4190 ft | 232 kts | 247° |
| 2026-04-28 11:51 | -6.08965 | 106.46896 | 3875 ft | 230 kts | 247° |
| 2026-04-28 11:51 | -6.09566 | 106.45408 | 3558 ft | 229 kts | 247° |
| 2026-04-28 11:51 | -6.10163 | 106.43928 | 3251 ft | 227 kts | 247° |
| 2026-04-28 11:51 | -6.10984 | 106.42604 | 2961 ft | 223 kts | 222° |
| 2026-04-28 11:52 | -6.12335 | 106.41857 | 2649 ft | 224 kts | 191° |
| 2026-04-28 11:52 | -6.13866 | 106.41863 | 2364 ft | 220 kts | 166° |
| 2026-04-28 11:52 | -6.15315 | 106.42293 | 2153 ft | 213 kts | 159° |
| 2026-04-28 11:52 | -6.16666 | 106.42906 | 2050 ft | 219 kts | 141° |
| 2026-04-28 11:53 | -6.17571 | 106.44077 | 2014 ft | 213 kts | 109° |
| 2026-04-28 11:53 | -6.17755 | 106.45557 | 2014 ft | 212 kts | 87° |
| 2026-04-28 11:53 | -6.17646 | 106.46976 | 1999 ft | 196 kts | 84° |
| 2026-04-28 11:53 | -6.17518 | 106.48288 | 1999 ft | 181 kts | 84° |
| 2026-04-28 11:54 | -6.17332 | 106.49553 | 2008 ft | 185 kts | 75° |
| 2026-04-28 11:54 | -6.16870 | 106.50744 | 1997 ft | 181 kts | 65° |
| 2026-04-28 11:54 | -6.16361 | 106.51898 | 2009 ft | 175 kts | 67° |
| 2026-04-28 11:54 | -6.15917 | 106.52974 | 1993 ft | 159 kts | 68° |
| 2026-04-28 11:55 | -6.15501 | 106.54017 | 1998 ft | 164 kts | 68° |
| 2026-04-28 11:55 | -6.15091 | 106.55059 | 2004 ft | 160 kts | 68° |
| 2026-04-28 11:55 | -6.14671 | 106.56103 | 2001 ft | 160 kts | 68° |
| 2026-04-28 11:55 | -6.14254 | 106.57134 | 1835 ft | 164 kts | 68° |
| 2026-04-28 11:56 | -6.13851 | 106.58203 | 1501 ft | 163 kts | 64° |
| 2026-04-28 11:56 | -6.13403 | 106.59228 | 1219 ft | 156 kts | 67° |
| 2026-04-28 11:56 | -6.12999 | 106.60258 | 986 ft | 154 kts | 68° |
| 2026-04-28 11:56 | -6.12642 | 106.61221 | 769 ft | 142 kts | 64° |
| 2026-04-28 11:57 | -6.12289 | 106.62092 | 511 ft | 135 kts | 63° |
| 2026-04-28 11:57 | -6.11937 | 106.62970 | 404 ft | 137 kts | 66° |
| 2026-04-28 11:57 | -6.11599 | 106.63846 | 161 ft | 134 kts | 65° |
| 2026-04-28 11:57 | -6.11244 | 106.64797 | 55 ft | 143 kts | 66° |
| 2026-04-28 11:58 | -6.10928 | 106.65590 | 37 ft | 94 kts | 68° |
| 2026-04-28 11:58 | -6.10759 | 106.66008 | 34 ft | 36 kts | 68° |
| 2026-04-28 11:58 | -6.10730 | 106.66078 | 33 ft | 0 kts | 68° |
| 2026-04-28 11:58 | -6.10720 | 106.66104 | 32 ft | 9 kts | 68° |
| 2026-04-28 11:59 | -6.10683 | 106.66197 | 31 ft | 19 kts | 68° |
| 2026-04-28 11:59 | -6.10631 | 106.66351 | 30 ft | 27 kts | 78° |
| 2026-04-28 11:59 | -6.10630 | 106.66564 | 29 ft | 32 kts | 99° |
| 2026-04-28 11:59 | -6.10779 | 106.66652 | 29 ft | 25 kts | 210° |
| 2026-04-28 12:00 | -6.10844 | 106.66519 | 29 ft | 21 kts | 244° |
| 2026-04-28 12:00 | -6.10902 | 106.66383 | 30 ft | 22 kts | 247° |
| 2026-04-28 12:00 | -6.10961 | 106.66240 | 31 ft | 22 kts | 249° |
| 2026-04-28 12:00 | -6.11015 | 106.66092 | 32 ft | 23 kts | 249° |
| 2026-04-28 12:01 | -6.11123 | 106.66012 | 32 ft | 19 kts | 160° |
| 2026-04-28 12:01 | -6.11226 | 106.66088 | 31 ft | 19 kts | 122° |
| 2026-04-28 12:01 | -6.11256 | 106.66214 | 31 ft | 18 kts | 102° |
| 2026-04-28 12:01 | -6.11343 | 106.66296 | 31 ft | 18 kts | 167° |
| 2026-04-28 12:02 | -6.11448 | 106.66242 | 31 ft | 17 kts | 247° |
| 2026-04-28 12:02 | -6.11486 | 106.66129 | 32 ft | 18 kts | 249° |
| 2026-04-28 12:02 | -6.11535 | 106.66003 | 32 ft | 22 kts | 247° |
| 2026-04-28 12:02 | -6.11603 | 106.65837 | 33 ft | 30 kts | 248° |
| 2026-04-28 12:03 | -6.11689 | 106.65626 | 33 ft | 36 kts | 248° |
| 2026-04-28 12:03 | -6.11789 | 106.65381 | 34 ft | 39 kts | 246° |
| 2026-04-28 12:03 | -6.11889 | 106.65140 | 35 ft | 36 kts | 246° |
| 2026-04-28 12:03 | -6.11973 | 106.64916 | 36 ft | 28 kts | 248° |
| 2026-04-28 12:04 | -6.12049 | 106.64740 | 37 ft | 27 kts | 229° |
| 2026-04-28 12:04 | -6.12201 | 106.64745 | 37 ft | 22 kts | 160° |
| 2026-04-28 12:04 | -6.12355 | 106.64795 | 37 ft | 26 kts | 158° |
| 2026-04-28 12:04 | -6.12515 | 106.64863 | 37 ft | 29 kts | 164° |
| 2026-04-28 12:05 | -6.12651 | 106.64786 | 37 ft | 21 kts | 261° |
| 2026-04-28 12:05 | -6.12718 | 106.64666 | 38 ft | 20 kts | 206° |
| 2026-04-28 12:05 | -6.12845 | 106.64690 | 38 ft | 19 kts | 163° |
| 2026-04-28 12:05 | -6.12975 | 106.64738 | 37 ft | 21 kts | 159° |
| 2026-04-28 12:06 | -6.13110 | 106.64797 | 37 ft | 36 kts | 158° |
| 2026-04-28 12:06 | -6.13370 | 106.64901 | 37 ft | 39 kts | 158° |
| 2026-04-28 12:06 | -6.13562 | 106.64975 | 37 ft | 17 kts | 160° |
| 2026-04-28 12:06 | -6.13657 | 106.65043 | 37 ft | 17 kts | 113° |
| 2026-04-28 12:07 | -6.13637 | 106.65160 | 36 ft | 18 kts | 69° |
| 2026-04-28 12:07 | -6.13591 | 106.65280 | 36 ft | 19 kts | 69° |
| 2026-04-28 12:07 | -6.13541 | 106.65405 | 35 ft | 20 kts | 68° |
| 2026-04-28 12:07 | -6.13489 | 106.65536 | 35 ft | 21 kts | 68° |
| 2026-04-28 12:08 | -6.13434 | 106.65672 | 34 ft | 21 kts | 68° |
| 2026-04-28 12:08 | -6.13362 | 106.65795 | 34 ft | 19 kts | 26° |
| 2026-04-28 12:08 | -6.13232 | 106.65819 | 34 ft | 19 kts | 9° |
| 2026-04-28 12:08 | -6.13104 | 106.65854 | 34 ft | 18 kts | 40° |
| 2026-04-28 12:09 | -6.13054 | 106.65969 | 33 ft | 18 kts | 69° |
| 2026-04-28 12:09 | -6.12977 | 106.66070 | 33 ft | 19 kts | 32° |
| 2026-04-28 12:09 | -6.12850 | 106.66097 | 33 ft | 19 kts | 357° |
| 2026-04-28 12:09 | -6.12739 | 106.66026 | 33 ft | 20 kts | 313° |
| 2026-04-28 12:10 | -6.12699 | 106.65918 | 33 ft | 15 kts | 249° |
| 2026-04-28 12:10 | -6.12740 | 106.65888 | 33 ft | 0 kts | 210° |
| 2026-04-28 12:11 | -6.12732 | 106.65893 | 33 ft | 2 kts | 210° |